createdAt,value
2023-01-11T00:00:46.485Z,100890.75
2023-01-11T00:03:13.498Z,100882.63
2023-01-11T00:05:42.895Z,100882.63
2023-01-11T00:08:10.640Z,100893.94
2023-01-11T00:10:38.366Z,100891.59
2023-01-11T00:13:07.061Z,100884.59
2023-01-11T00:15:36.603Z,100885.97
2023-01-11T00:18:04.144Z,100885.00
2023-01-11T00:20:31.203Z,100884.44
2023-01-11T00:22:58.876Z,100879.19
2023-01-11T00:25:26.269Z,100877.50
2023-01-11T00:27:55.085Z,100876.72
2023-01-11T00:30:23.007Z,100878.97
2023-01-11T00:32:50.225Z,100866.25
2023-01-11T00:35:17.426Z,100868.75
2023-01-11T00:37:44.450Z,100872.81
2023-01-11T00:40:12.247Z,100869.72
2023-01-11T00:42:58.030Z,100867.84
2023-01-11T00:45:43.376Z,100861.44
2023-01-11T00:48:10.838Z,100853.09
2023-01-11T00:50:40.928Z,100853.22
2023-01-11T00:53:09.650Z,100854.97
2023-01-11T00:55:37.250Z,100847.91
2023-01-11T00:58:04.567Z,100846.69
2023-01-11T01:00:31.750Z,100842.16
2023-01-11T01:02:58.897Z,100841.25
2023-01-11T01:05:26.157Z,100838.84
2023-01-11T01:07:53.451Z,100835.41
2023-01-11T01:10:21.278Z,100831.09
2023-01-11T01:13:07.548Z,100825.25
2023-01-11T01:15:34.789Z,100824.88
2023-01-11T01:18:02.119Z,100822.03
2023-01-11T01:20:29.347Z,100815.31
2023-01-11T01:22:56.448Z,100813.47
2023-01-11T01:25:23.643Z,100811.28
2023-01-11T01:27:50.626Z,100808.50
2023-01-11T01:30:17.853Z,100806.75
2023-01-11T01:32:44.950Z,100808.44
2023-01-11T01:35:12.226Z,100796.28
2023-01-11T01:37:39.270Z,100794.91
2023-01-11T01:40:07.563Z,100789.03
2023-01-11T01:42:34.664Z,100784.09
2023-01-11T01:45:25.205Z,100786.06
2023-01-11T01:48:01.589Z,100799.16
2023-01-11T01:50:48.857Z,100787.22
2023-01-11T01:53:35.874Z,100795.50
2023-01-11T01:56:10.205Z,100788.03
2023-01-11T01:58:55.504Z,100773.88
2023-01-11T02:01:41.109Z,100776.03
2023-01-11T02:04:37.291Z,100765.22
2023-01-11T02:07:14.193Z,100763.25
2023-01-11T02:10:03.665Z,100755.56
2023-01-11T02:12:44.971Z,100747.00
2023-01-11T02:15:16.409Z,100745.41
2023-01-11T02:17:43.426Z,100734.38
2023-01-11T02:20:43.464Z,100729.59
2023-01-11T02:24:04.085Z,100724.25
2023-01-11T02:27:46.247Z,100718.16
2023-01-11T02:30:56.307Z,100712.19
2023-01-11T02:34:15.373Z,100701.84
2023-01-11T02:37:00.179Z,100699.59
2023-01-11T02:40:17.095Z,100692.84
2023-01-11T02:43:14.426Z,100680.06
2023-01-11T02:46:16.666Z,100676.28
2023-01-11T02:49:13.651Z,100674.88
2023-01-11T02:51:55.192Z,100668.72
2023-01-11T02:54:24.083Z,100668.22
2023-01-11T02:57:00.170Z,100663.88
2023-01-11T02:59:34.713Z,100662.97
2023-01-11T03:02:02.316Z,100663.81
2023-01-11T03:04:36.747Z,100674.38
2023-01-11T03:07:06.605Z,100664.50
2023-01-11T03:10:08.255Z,100658.81
2023-01-11T03:13:02.756Z,100664.75
2023-01-11T03:16:32.540Z,100657.50
2023-01-11T03:19:32.305Z,100653.38
2023-01-11T03:22:16.208Z,100641.38
2023-01-11T03:25:31.034Z,100641.09
2023-01-11T03:28:02.432Z,100629.56
2023-01-11T03:31:02.497Z,100627.72
2023-01-11T03:34:14.089Z,100626.47
2023-01-11T03:36:56.494Z,100624.22
2023-01-11T03:39:45.315Z,100616.94
2023-01-11T03:42:17.295Z,100618.34
2023-01-11T03:44:48.744Z,100608.69
2023-01-11T03:47:19.334Z,100609.00
2023-01-11T03:49:58.493Z,100621.56
2023-01-11T03:52:33.966Z,100614.34
2023-01-11T03:55:05.916Z,100602.06
2023-01-11T03:57:39.592Z,100610.75
2023-01-11T04:00:10.934Z,100603.81
2023-01-11T04:02:44.527Z,100598.13
2023-01-11T04:05:13.371Z,100599.47
2023-01-11T04:07:40.513Z,100594.22
2023-01-11T04:10:10.064Z,100590.63
2023-01-11T04:12:37.097Z,100595.47
2023-01-11T04:15:05.576Z,100594.13
2023-01-11T04:17:32.955Z,100587.19
2023-01-11T04:20:00.038Z,100594.69
2023-01-11T04:22:29.424Z,100589.19
2023-01-11T04:24:56.430Z,100592.31
2023-01-11T04:27:23.444Z,100598.22
2023-01-11T04:29:50.451Z,100590.44
2023-01-11T04:32:17.523Z,100587.94
2023-01-11T04:34:44.573Z,100587.53
2023-01-11T04:37:12.057Z,100581.44
2023-01-11T04:39:39.452Z,100576.25
2023-01-11T04:42:18.396Z,100570.38
2023-01-11T04:44:51.194Z,100569.53
2023-01-11T04:47:23.127Z,100558.50
2023-01-11T04:49:50.884Z,100552.56
2023-01-11T04:52:20.608Z,100556.59
2023-01-11T04:54:48.706Z,100550.03
2023-01-11T04:57:17.501Z,100556.16
2023-01-11T04:59:46.792Z,100540.19
2023-01-11T05:02:15.972Z,100536.84
2023-01-11T05:04:45.566Z,100543.09
2023-01-11T05:07:12.602Z,100546.44
2023-01-11T05:09:40.758Z,100539.13
2023-01-11T05:12:08.547Z,100540.88
2023-01-11T05:14:35.545Z,100534.50
2023-01-11T05:17:02.579Z,100524.03
2023-01-11T05:19:29.671Z,100520.38
2023-01-11T05:21:56.909Z,100523.78
2023-01-11T05:24:28.344Z,100515.56
2023-01-11T05:26:55.340Z,100516.78
2023-01-11T05:29:22.457Z,100504.28
2023-01-11T05:31:50.994Z,100508.47
2023-01-11T05:34:18.485Z,100498.78
2023-01-11T05:36:46.152Z,100493.16
2023-01-11T05:39:17.189Z,100499.69
2023-01-11T05:41:44.256Z,100491.59
2023-01-11T05:44:31.869Z,100494.81
2023-01-11T05:46:59.558Z,100490.06
2023-01-11T05:49:29.430Z,100488.38
2023-01-11T05:51:56.799Z,100483.75
2023-01-11T05:54:24.274Z,100488.75
2023-01-11T05:56:51.263Z,100482.50
2023-01-11T05:59:18.511Z,100479.16
2023-01-11T06:01:45.659Z,100478.41
2023-01-11T06:04:12.846Z,100479.47
2023-01-11T06:06:40.529Z,100487.69
2023-01-11T06:09:07.663Z,100480.44
2023-01-11T06:11:34.821Z,100477.41
2023-01-11T06:14:02.194Z,100482.13
2023-01-11T06:16:29.241Z,100476.09
2023-01-11T06:18:56.330Z,100467.47
2023-01-11T06:21:24.462Z,100468.69
2023-01-11T06:23:51.957Z,100453.03
2023-01-11T06:26:22.508Z,100462.69
2023-01-11T06:28:51.011Z,100459.91
2023-01-11T06:31:19.319Z,100462.69
2023-01-11T06:33:47.529Z,100460.06
2023-01-11T06:36:19.104Z,100462.84
2023-01-11T06:38:46.224Z,100465.81
2023-01-11T06:41:13.760Z,100452.13
2023-01-11T06:43:41.953Z,100455.66
2023-01-11T06:46:16.999Z,100451.56
2023-01-11T06:48:48.370Z,100446.13
2023-01-11T06:51:18.665Z,100450.25
2023-01-11T06:53:46.562Z,100454.50
2023-01-11T06:56:21.703Z,100453.28
2023-01-11T06:58:48.812Z,100457.47
2023-01-11T07:01:16.786Z,100458.84
2023-01-11T07:03:45.341Z,100455.72
2023-01-11T07:06:12.540Z,100472.13
2023-01-11T07:08:39.565Z,100460.41
2023-01-11T07:11:10.537Z,100472.78
2023-01-11T07:13:38.153Z,100478.69
2023-01-11T07:16:08.400Z,100475.09
2023-01-11T07:18:35.911Z,100473.25
2023-01-11T07:21:03.300Z,100473.59
2023-01-11T07:23:30.564Z,100474.22
2023-01-11T07:25:58.100Z,100477.97
2023-01-11T07:28:25.317Z,100482.84
2023-01-11T07:30:58.615Z,100476.81
2023-01-11T07:33:27.054Z,100484.97
2023-01-11T07:35:57.900Z,100481.22
2023-01-11T07:38:25.581Z,100483.59
2023-01-11T07:40:53.936Z,100484.78
2023-01-11T07:43:22.973Z,100482.38
2023-01-11T07:45:52.912Z,100473.47
2023-01-11T07:48:26.287Z,100476.66
2023-01-11T07:50:54.114Z,100482.56
2023-01-11T07:53:21.907Z,100476.25
2023-01-11T07:55:48.943Z,100473.31
2023-01-11T07:58:16.575Z,100473.47
2023-01-11T08:00:45.873Z,100474.50
2023-01-11T08:03:16.416Z,100473.94
2023-01-11T08:05:46.244Z,100478.13
2023-01-11T08:08:13.299Z,100461.88
2023-01-11T08:10:42.073Z,100470.25
2023-01-11T08:13:32.483Z,100468.22
2023-01-11T08:16:00.333Z,100471.06
2023-01-11T08:18:27.397Z,100463.03
2023-01-11T08:20:54.670Z,100471.91
2023-01-11T08:23:21.711Z,100466.81
2023-01-11T08:25:48.758Z,100467.38
2023-01-11T08:28:15.784Z,100463.56
2023-01-11T08:30:44.300Z,100465.41
2023-01-11T08:33:11.571Z,100459.38
2023-01-11T08:35:39.831Z,100463.38
2023-01-11T08:38:08.059Z,100455.22
2023-01-11T08:40:35.373Z,100460.50
2023-01-11T08:43:02.792Z,100454.91
2023-01-11T08:45:29.936Z,100461.97
2023-01-11T08:47:58.901Z,100451.22
2023-01-11T08:50:25.868Z,100455.28
2023-01-11T08:52:52.926Z,100447.38
2023-01-11T08:55:23.409Z,100449.69
2023-01-11T08:57:50.975Z,100440.06
2023-01-11T09:00:21.534Z,100445.06
2023-01-11T09:02:48.831Z,100445.59
2023-01-11T09:05:18.294Z,100445.31
2023-01-11T09:07:45.975Z,100447.41
2023-01-11T09:10:13.151Z,100447.63
2023-01-11T09:13:06.988Z,100447.81
2023-01-11T09:15:34.194Z,100448.94
2023-01-11T09:18:04.023Z,100458.63
2023-01-11T09:20:31.303Z,100454.97
2023-01-11T09:22:59.988Z,100454.47
2023-01-11T09:25:27.324Z,100445.72
2023-01-11T09:27:56.919Z,100449.31
2023-01-11T09:30:24.778Z,100442.03
2023-01-11T09:32:53.006Z,100446.84
2023-01-11T09:35:20.189Z,100436.81
2023-01-11T09:37:55.719Z,100431.25
2023-01-11T09:40:57.311Z,100432.56
2023-01-11T09:43:28.586Z,100427.06
2023-01-11T09:46:06.711Z,100422.47
2023-01-11T09:48:46.543Z,100417.06
2023-01-11T09:51:16.381Z,100423.53
2023-01-11T09:53:52.509Z,100426.03
2023-01-11T09:56:25.607Z,100427.31
2023-01-11T09:59:19.122Z,100423.13
2023-01-11T10:02:39.136Z,100421.22
2023-01-11T10:06:06.778Z,100413.53
2023-01-11T10:18:37.855Z,100398.53
2023-01-11T10:19:40.548Z,100397.75
2023-01-11T10:22:19.777Z,100390.78
2023-01-11T10:25:31.176Z,100384.47
2023-01-11T10:28:07.441Z,100381.88
2023-01-11T10:30:59.129Z,100380.91
2023-01-11T10:34:04.834Z,100385.06
2023-01-11T10:37:05.715Z,100381.56
2023-01-11T10:40:06.723Z,100374.41
2023-01-11T10:43:04.586Z,100380.53
2023-01-11T10:45:59.215Z,100376.16
2023-01-11T10:48:48.276Z,100369.63
2023-01-11T10:51:40.826Z,100369.22
2023-01-11T10:54:27.377Z,100368.59
2023-01-11T10:57:38.548Z,100374.44
2023-01-11T11:01:18.768Z,100365.16
2023-01-11T11:04:10.308Z,100361.00
2023-01-11T11:07:26.411Z,100363.41
2023-01-11T11:10:46.960Z,100355.81
2023-01-11T11:14:09.212Z,100343.63
2023-01-11T11:17:15.778Z,100349.91
2023-01-11T11:19:42.992Z,100337.59
2023-01-11T11:22:16.134Z,100330.53
2023-01-11T11:25:37.438Z,100328.56
2023-01-11T11:28:22.640Z,100326.91
2023-01-11T11:31:13.666Z,100325.66
2023-01-11T11:33:45.996Z,100325.22
2023-01-11T11:36:14.865Z,100325.44
2023-01-11T11:39:27.269Z,100322.31
2023-01-11T11:42:08.072Z,100323.56
2023-01-11T11:44:35.529Z,100317.75
2023-01-11T11:47:17.128Z,100317.03
2023-01-11T11:49:44.492Z,100313.78
2023-01-11T11:52:17.701Z,100307.56
2023-01-11T11:54:57.688Z,100317.13
2023-01-11T11:57:30.647Z,100307.56
2023-01-11T12:00:30.795Z,100311.38
2023-01-11T12:03:13.340Z,100309.81
2023-01-11T12:06:02.560Z,100303.38
2023-01-11T12:08:33.816Z,100297.13
2023-01-11T12:11:32.676Z,100282.16
2023-01-11T12:14:35.191Z,100279.03
2023-01-11T12:17:26.088Z,100287.34
2023-01-11T12:19:53.284Z,100284.03
2023-01-11T12:22:33.640Z,100281.22
2023-01-11T12:25:08.073Z,100273.56
2023-01-11T12:27:46.374Z,100275.50
2023-01-11T12:30:45.558Z,100269.03
2023-01-11T12:34:08.878Z,100269.66
2023-01-11T12:37:23.345Z,100260.94
2023-01-11T12:41:02.698Z,100267.59
2023-01-11T12:44:13.100Z,100262.66
2023-01-11T12:47:35.123Z,100265.00
2023-01-11T12:51:05.640Z,100262.78
2023-01-11T12:54:27.174Z,100256.94
2023-01-11T12:58:00.492Z,100258.22
2023-01-11T13:00:57.755Z,100261.72
2023-01-11T13:04:21.242Z,100243.97
2023-01-11T13:07:16.294Z,100239.25
2023-01-11T13:10:01.743Z,100240.91
2023-01-11T13:12:37.976Z,100239.25
2023-01-11T13:16:03.835Z,100242.47
2023-01-11T13:19:11.281Z,100235.94
2023-01-11T13:21:53.184Z,100240.06
2023-01-11T13:24:36.565Z,100241.75
2023-01-11T13:27:12.832Z,100237.78
2023-01-11T13:29:52.405Z,100236.56
2023-01-11T13:32:39.752Z,100240.72
2023-01-11T13:35:59.116Z,100247.06
2023-01-11T13:38:42.869Z,100247.13
2023-01-11T13:41:23.758Z,100250.25
2023-01-11T13:44:46.465Z,100252.84
2023-01-11T13:47:37.989Z,100251.56
2023-01-11T13:50:38.239Z,100256.69
2023-01-11T13:54:05.054Z,100245.31
2023-01-11T13:56:44.502Z,100256.34
2023-01-11T14:00:01.769Z,100251.25
2023-01-11T14:02:46.509Z,100248.56
2023-01-11T14:05:21.210Z,100244.13
2023-01-11T14:08:32.396Z,100253.88
2023-01-11T14:11:35.390Z,100253.53
2023-01-11T14:14:39.065Z,100246.56
2023-01-11T14:18:08.966Z,100258.34
2023-01-11T14:21:33.981Z,100267.50
2023-01-11T14:24:03.283Z,100260.59
2023-01-11T14:27:28.097Z,100262.47
2023-01-11T14:30:55.229Z,100258.56
2023-01-11T14:33:46.513Z,100257.47
2023-01-11T14:36:37.672Z,100259.66
2023-01-11T14:40:18.352Z,100268.66
2023-01-11T14:43:49.077Z,100268.03
2023-01-11T14:46:22.175Z,100261.91
2023-01-11T14:49:55.384Z,100270.31
2023-01-11T14:52:39.701Z,100273.66
2023-01-11T14:55:17.843Z,100272.00
2023-01-11T14:58:59.462Z,100264.91
2023-01-11T15:01:26.540Z,100281.25
2023-01-11T15:03:59.483Z,100273.66
2023-01-11T15:06:48.885Z,100275.94
2023-01-11T15:09:46.057Z,100275.69
2023-01-11T15:12:23.755Z,100278.41
2023-01-11T15:15:05.728Z,100277.97
2023-01-11T15:17:58.510Z,100271.31
2023-01-11T15:20:26.691Z,100273.72
2023-01-11T15:23:03.535Z,100272.81
2023-01-11T15:25:34.692Z,100279.59
2023-01-11T15:28:37.535Z,100280.31
2023-01-11T15:31:06.139Z,100289.66
2023-01-11T15:33:50.169Z,100283.63
2023-01-11T15:36:17.645Z,100291.09
2023-01-11T15:39:09.123Z,100292.16
2023-01-11T15:42:41.334Z,100300.19
2023-01-11T15:46:03.916Z,100299.59
2023-01-11T15:49:08.803Z,100301.53
2023-01-11T15:52:38.481Z,100303.75
2023-01-11T15:55:30.533Z,100307.47
2023-01-11T15:59:00.995Z,100313.00
2023-01-11T16:01:28.891Z,100316.63
2023-01-11T16:04:33.622Z,100320.59
2023-01-11T16:07:35.052Z,100330.47
2023-01-11T16:10:23.728Z,100327.56
2023-01-11T16:13:19.728Z,100323.19
2023-01-11T16:16:07.581Z,100338.66
2023-01-11T16:18:45.912Z,100343.66
2023-01-11T16:21:44.029Z,100342.56
2023-01-11T16:24:26.698Z,100347.78
2023-01-11T16:27:01.752Z,100342.97
2023-01-11T16:29:37.276Z,100349.97
2023-01-11T16:32:29.493Z,100354.00
2023-01-11T16:34:56.645Z,100363.59
2023-01-11T16:37:43.609Z,100370.34
2023-01-11T16:40:42.536Z,100366.91
2023-01-11T16:43:33.301Z,100370.19
2023-01-11T16:46:00.391Z,100369.69
2023-01-11T16:48:29.805Z,100377.56
2023-01-11T16:51:14.162Z,100381.13
2023-01-11T16:53:45.121Z,100393.41
2023-01-11T16:56:23.855Z,100394.53
2023-01-11T16:59:24.508Z,100396.50
2023-01-11T17:02:06.163Z,100389.31
2023-01-11T17:04:37.614Z,100389.19
2023-01-11T17:07:28.658Z,100396.06
2023-01-11T17:10:19.156Z,100411.72
2023-01-11T17:13:00.044Z,100408.16
2023-01-11T17:15:52.060Z,100414.63
2023-01-11T17:18:19.097Z,100409.84
2023-01-11T17:20:53.531Z,100409.72
2023-01-11T17:23:20.897Z,100413.59
2023-01-11T17:25:57.503Z,100411.59
2023-01-11T17:28:25.990Z,100414.31
2023-01-11T17:30:54.179Z,100414.09
2023-01-11T17:33:33.449Z,100417.53
2023-01-11T17:36:01.860Z,100428.28
2023-01-11T17:38:30.095Z,100408.78
2023-01-11T17:40:59.976Z,100413.06
2023-01-11T17:43:48.009Z,100427.56
2023-01-11T17:46:25.509Z,100423.28
2023-01-11T17:48:58.402Z,100424.00
2023-01-11T17:51:35.637Z,100425.78
2023-01-11T17:54:02.780Z,100436.09
2023-01-11T17:56:32.365Z,100433.28
2023-01-11T17:59:30.175Z,100424.53
2023-01-11T18:02:14.265Z,100435.06
2023-01-11T18:04:41.692Z,100439.44
2023-01-11T18:07:19.084Z,100445.38
2023-01-11T18:09:57.477Z,100445.06
2023-01-11T18:12:34.054Z,100440.09
2023-01-11T18:15:06.304Z,100453.44
2023-01-11T18:17:39.964Z,100455.66
2023-01-11T18:20:16.000Z,100459.28
2023-01-11T18:23:05.222Z,100470.19
2023-01-11T18:25:34.942Z,100471.38
2023-01-11T18:28:30.200Z,100470.00
2023-01-11T18:31:01.601Z,100468.84
2023-01-11T18:33:33.488Z,100471.78
2023-01-11T18:36:04.254Z,100469.59
2023-01-11T18:38:35.125Z,100476.25
2023-01-11T18:41:28.142Z,100471.28
2023-01-11T18:43:55.858Z,100480.94
2023-01-11T18:46:23.073Z,100479.50
2023-01-11T18:48:50.317Z,100481.78
2023-01-11T18:51:35.657Z,100476.69
2023-01-11T18:54:02.865Z,100484.38
2023-01-11T18:56:29.865Z,100488.53
2023-01-11T18:58:56.904Z,100482.81
2023-01-11T19:01:24.125Z,100489.25
2023-01-11T19:03:51.524Z,100487.81
2023-01-11T19:06:22.637Z,100483.03
2023-01-11T19:08:49.633Z,100490.31
2023-01-11T19:11:16.847Z,100491.75
2023-01-11T19:13:46.628Z,100505.91
2023-01-11T19:16:14.867Z,100512.38
2023-01-11T19:18:41.864Z,100512.38
2023-01-11T19:21:10.910Z,100527.28
2023-01-11T19:23:37.931Z,100530.72
2023-01-11T19:26:05.155Z,100531.13
2023-01-11T19:28:32.792Z,100533.59
2023-01-11T19:31:00.099Z,100531.91
2023-01-11T19:33:27.150Z,100528.38
2023-01-11T19:35:54.553Z,100534.66
2023-01-11T19:38:21.571Z,100540.78
2023-01-11T19:40:50.459Z,100541.63
2023-01-11T19:43:17.864Z,100541.72
2023-01-11T19:45:44.899Z,100547.84
2023-01-11T19:48:12.310Z,100541.06
2023-01-11T19:50:39.272Z,100549.63
2023-01-11T19:53:06.341Z,100552.97
2023-01-11T19:55:33.354Z,100559.59
2023-01-11T19:58:02.533Z,100555.56
2023-01-11T20:00:29.912Z,100570.25
2023-01-11T20:02:57.103Z,100572.84
2023-01-11T20:05:24.180Z,100571.69
2023-01-11T20:07:51.294Z,100582.19
2023-01-11T20:10:18.425Z,100573.16
2023-01-11T20:12:45.452Z,100574.50
2023-01-11T20:15:12.470Z,100578.97
2023-01-11T20:17:39.651Z,100581.03
2023-01-11T20:20:07.850Z,100589.44
2023-01-11T20:22:34.925Z,100581.63
2023-01-11T20:25:01.965Z,100579.13
2023-01-11T20:27:28.933Z,100585.53
2023-01-11T20:29:56.045Z,100589.06
2023-01-11T20:32:40.417Z,100595.34
2023-01-11T20:35:10.207Z,100588.00
2023-01-11T20:37:37.227Z,100594.22
2023-01-11T20:40:08.735Z,100599.72
2023-01-11T20:42:35.793Z,100592.88
2023-01-11T20:45:02.859Z,100587.84
2023-01-11T20:47:29.863Z,100584.50
2023-01-11T20:49:56.849Z,100592.41
2023-01-11T20:52:23.918Z,100595.41
2023-01-11T20:54:50.889Z,100596.41
2023-01-11T20:57:17.863Z,100604.31
2023-01-11T20:59:44.882Z,100608.75
2023-01-11T21:02:13.568Z,100601.19
2023-01-11T21:04:40.707Z,100604.50
2023-01-11T21:07:07.784Z,100600.34
2023-01-11T21:09:34.849Z,100602.94
2023-01-11T21:12:02.018Z,100597.00
2023-01-11T21:14:29.158Z,100598.84
2023-01-11T21:16:56.407Z,100590.97
2023-01-11T21:19:23.605Z,100592.25
2023-01-11T21:21:50.684Z,100594.84
2023-01-11T21:24:17.736Z,100593.22
2023-01-11T21:26:45.792Z,100590.72
2023-01-11T21:29:13.608Z,100603.97
2023-01-11T21:31:41.860Z,100592.94
2023-01-11T21:34:12.361Z,100596.66
2023-01-11T21:36:40.639Z,100596.09
2023-01-11T21:39:09.243Z,100589.41
2023-01-11T21:41:55.143Z,100600.94
2023-01-11T21:44:31.365Z,100597.59
2023-01-11T21:47:00.121Z,100591.72
2023-01-11T21:49:27.335Z,100596.09
2023-01-11T21:51:54.397Z,100586.72
2023-01-11T21:54:21.645Z,100585.34
2023-01-11T21:56:49.852Z,100589.97
2023-01-11T21:59:17.577Z,100598.69
2023-01-11T22:01:46.828Z,100605.47
2023-01-11T22:04:20.208Z,100612.41
2023-01-11T22:06:54.004Z,100606.75
2023-01-11T22:09:22.036Z,100599.81
2023-01-11T22:11:50.922Z,100596.66
2023-01-11T22:14:18.276Z,100602.84
2023-01-11T22:16:45.461Z,100602.13
2023-01-11T22:19:13.308Z,100607.03
2023-01-11T22:21:40.468Z,100603.22
2023-01-11T22:24:11.990Z,100609.34
2023-01-11T22:26:39.803Z,100609.34
2023-01-11T22:29:14.679Z,100617.25
2023-01-11T22:31:54.642Z,100603.69
2023-01-11T22:34:23.308Z,100612.41
2023-01-11T22:36:50.587Z,100617.53
2023-01-11T22:39:19.561Z,100609.34
2023-01-11T22:41:48.841Z,100608.63
2023-01-11T22:44:17.833Z,100611.41
2023-01-11T22:46:45.237Z,100603.13
2023-01-11T22:49:13.540Z,100611.03
2023-01-11T22:51:43.323Z,100608.72
2023-01-11T22:54:11.491Z,100602.31
2023-01-11T22:56:38.965Z,100595.16
2023-01-11T22:59:06.596Z,100595.44
2023-01-11T23:01:40.306Z,100598.59
2023-01-11T23:04:12.872Z,100600.94
2023-01-11T23:06:42.643Z,100603.22
2023-01-11T23:09:16.251Z,100604.06
2023-01-11T23:12:03.525Z,100596.47
2023-01-11T23:14:32.957Z,100600.94
2023-01-11T23:17:06.944Z,100601.69
2023-01-11T23:19:41.222Z,100600.19
2023-01-11T23:22:10.112Z,100599.44
2023-01-11T23:24:37.847Z,100602.78
2023-01-11T23:27:05.375Z,100596.25
2023-01-11T23:29:32.623Z,100603.34
2023-01-11T23:31:59.947Z,100598.06
2023-01-11T23:34:27.351Z,100603.22
2023-01-11T23:36:54.349Z,100607.78
2023-01-11T23:39:21.553Z,100594.78
2023-01-11T23:42:07.000Z,100597.66
2023-01-11T23:44:34.458Z,100589.03
2023-01-11T23:47:19.869Z,100599.41
2023-01-11T23:49:52.548Z,100588.19
2023-01-11T23:52:24.751Z,100587.72
2023-01-11T23:54:52.534Z,100579.66
2023-01-11T23:57:21.724Z,100580.13
2023-01-11T23:59:48.874Z,100570.47
